createdAt,value
2022-11-16T00:02:13.804Z,71.27
2022-11-16T00:04:42.583Z,75.13
2022-11-16T00:07:11.483Z,73.40
2022-11-16T00:09:39.728Z,72.40
2022-11-16T00:12:11.287Z,73.00
2022-11-16T00:14:39.448Z,81.07
2022-11-16T00:17:07.671Z,76.83
2022-11-16T00:19:37.153Z,77.60
2022-11-16T00:22:05.209Z,81.20
2022-11-16T00:24:33.337Z,78.67
2022-11-16T00:27:01.492Z,75.97
2022-11-16T00:29:29.624Z,81.37
2022-11-16T00:31:57.667Z,77.73
2022-11-16T00:34:26.098Z,81.30
2022-11-16T00:36:55.518Z,76.87
2022-11-16T00:39:23.807Z,76.17
2022-11-16T00:41:52.032Z,80.20
2022-11-16T00:44:20.109Z,78.67
2022-11-16T00:46:48.319Z,82.73
2022-11-16T00:49:16.696Z,81.27
2022-11-16T00:51:44.779Z,78.33
2022-11-16T00:54:14.210Z,78.63
2022-11-16T00:56:42.396Z,80.47
2022-11-16T00:59:10.449Z,79.43
2022-11-16T01:01:38.670Z,79.30
2022-11-16T01:04:06.824Z,77.80
2022-11-16T01:06:34.864Z,82.83
2022-11-16T01:09:03.351Z,82.00
2022-11-16T01:11:50.274Z,83.50
2022-11-16T01:14:18.450Z,79.43
2022-11-16T01:16:49.652Z,80.23
2022-11-16T01:19:17.662Z,80.70
2022-11-16T01:21:45.837Z,86.13
2022-11-16T01:24:13.977Z,88.00
2022-11-16T01:26:43.362Z,87.63
2022-11-16T01:29:11.431Z,87.23
2022-11-16T01:31:39.476Z,86.50
2022-11-16T01:34:07.508Z,89.97
2022-11-16T01:36:36.815Z,88.57
2022-11-16T01:39:06.283Z,84.10
2022-11-16T01:41:34.375Z,82.60
2022-11-16T01:44:06.437Z,83.53
2022-11-16T01:46:34.798Z,85.03
2022-11-16T01:49:06.589Z,88.13
2022-11-16T01:51:35.629Z,88.00
2022-11-16T01:54:07.968Z,86.93
2022-11-16T01:56:38.656Z,88.20
2022-11-16T01:59:08.492Z,81.63
2022-11-16T02:01:36.619Z,83.60
2022-11-16T02:04:05.031Z,82.30
2022-11-16T02:06:57.186Z,83.10
2022-11-16T02:09:54.590Z,89.03
2022-11-16T02:12:54.116Z,81.50
2022-11-16T02:15:28.419Z,83.83
2022-11-16T02:18:15.324Z,83.77
2022-11-16T02:21:04.687Z,82.47
2022-11-16T02:24:20.283Z,86.80
2022-11-16T02:27:16.802Z,85.10
2022-11-16T02:29:48.832Z,84.23
2022-11-16T02:32:21.794Z,85.17
2022-11-16T02:34:53.838Z,85.33
2022-11-16T02:37:24.633Z,87.83
2022-11-16T02:39:58.813Z,87.00
2022-11-16T02:42:32.194Z,87.50
2022-11-16T02:45:04.157Z,83.50
2022-11-16T02:47:35.454Z,87.43
2022-11-16T02:50:07.654Z,86.73
2022-11-16T02:52:38.050Z,91.10
2022-11-16T02:55:06.781Z,90.17
2022-11-16T02:57:50.268Z,89.17
2022-11-16T03:00:23.675Z,90.80
2022-11-16T03:03:11.128Z,90.07
2022-11-16T03:05:43.276Z,85.30
2022-11-16T03:08:18.644Z,87.67
2022-11-16T03:11:09.136Z,90.67
2022-11-16T03:13:39.693Z,87.67
2022-11-16T03:16:16.175Z,94.70
2022-11-16T03:18:46.391Z,93.43
2022-11-16T03:21:19.341Z,91.10
2022-11-16T03:23:47.799Z,84.60
2022-11-16T03:26:21.551Z,84.07
2022-11-16T03:28:56.199Z,82.67
2022-11-16T03:31:30.630Z,78.40
2022-11-16T03:34:03.450Z,78.27
2022-11-16T03:36:34.875Z,76.17
2022-11-16T03:39:08.314Z,75.10
2022-11-16T03:41:41.032Z,73.17
2022-11-16T03:44:11.515Z,74.87
2022-11-16T03:46:41.929Z,75.67
2022-11-16T03:49:10.262Z,74.60
2022-11-16T03:51:39.700Z,73.53
2022-11-16T03:54:07.910Z,76.77
2022-11-16T03:56:36.005Z,76.67
2022-11-16T03:59:04.212Z,75.87
2022-11-16T04:01:32.417Z,78.03
2022-11-16T04:04:01.901Z,78.07
2022-11-16T04:06:47.475Z,78.67
2022-11-16T04:09:32.904Z,76.30
2022-11-16T04:12:18.293Z,77.17
2022-11-16T04:15:04.296Z,75.50
2022-11-16T04:17:49.790Z,76.33
2022-11-16T04:20:37.599Z,77.13
2022-11-16T04:23:28.251Z,80.67
2022-11-16T04:25:56.599Z,80.37
2022-11-16T04:28:27.472Z,81.03
2022-11-16T04:31:17.049Z,78.87
2022-11-16T04:34:03.872Z,77.80
2022-11-16T04:36:50.568Z,81.70
2022-11-16T04:39:18.788Z,82.60
2022-11-16T04:42:04.275Z,79.77
2022-11-16T04:44:49.767Z,80.57
2022-11-16T04:47:17.877Z,78.67
2022-11-16T04:49:45.870Z,80.97
2022-11-16T04:52:15.273Z,81.83
2022-11-16T04:54:43.414Z,78.00
2022-11-16T04:57:11.446Z,75.37
2022-11-16T04:59:39.587Z,73.00
2022-11-16T05:02:10.633Z,73.53
2022-11-16T05:04:41.225Z,74.30
2022-11-16T05:07:11.263Z,77.50
2022-11-16T05:09:43.019Z,74.73
2022-11-16T05:12:14.815Z,73.13
2022-11-16T05:14:43.216Z,75.60
2022-11-16T05:17:11.890Z,74.53
2022-11-16T05:19:57.647Z,74.43
2022-11-16T05:22:25.957Z,72.50
2022-11-16T05:24:55.995Z,70.57
2022-11-16T05:27:25.267Z,74.20
2022-11-16T05:29:54.324Z,71.43
2022-11-16T05:32:24.345Z,71.30
2022-11-16T05:34:52.537Z,69.30
2022-11-16T05:37:21.601Z,72.50
2022-11-16T05:39:49.784Z,71.57
2022-11-16T05:42:19.299Z,67.70
2022-11-16T05:44:47.331Z,69.07
2022-11-16T05:47:15.382Z,72.97
2022-11-16T05:49:43.472Z,76.77
2022-11-16T05:52:11.752Z,75.80
2022-11-16T05:54:39.837Z,72.27
2022-11-16T05:57:07.872Z,75.33
2022-11-16T05:59:37.324Z,71.23
2022-11-16T06:02:05.356Z,76.83
2022-11-16T06:04:34.703Z,76.63
2022-11-16T06:07:02.909Z,75.87
2022-11-16T06:09:31.048Z,69.63
2022-11-16T06:11:59.178Z,70.57
2022-11-16T06:14:27.214Z,66.80
2022-11-16T06:16:56.639Z,65.43
2022-11-16T06:19:28.285Z,65.33
2022-11-16T06:22:00.192Z,66.43
2022-11-16T06:24:28.330Z,65.40
2022-11-16T06:26:56.738Z,62.87
2022-11-16T06:29:24.945Z,60.80
2022-11-16T06:31:53.042Z,58.57
2022-11-16T06:34:22.513Z,64.87
2022-11-16T06:36:50.518Z,62.00
2022-11-16T06:39:18.917Z,66.40
2022-11-16T06:41:47.013Z,65.53
2022-11-16T06:44:15.156Z,63.63
2022-11-16T06:46:43.268Z,62.63
2022-11-16T06:49:11.484Z,66.80
2022-11-16T06:51:40.899Z,78.30
2022-11-16T06:54:09.280Z,77.93
2022-11-16T06:56:37.428Z,76.23
2022-11-16T06:59:05.556Z,77.87
2022-11-16T07:01:39.789Z,73.77
2022-11-16T07:04:11.993Z,71.70
2022-11-16T07:06:41.636Z,69.00
2022-11-16T07:09:10.600Z,71.60
2022-11-16T07:11:38.792Z,73.32
2022-11-16T07:14:06.886Z,67.77
2022-11-16T07:16:36.788Z,73.53
2022-11-16T07:19:05.240Z,73.47
2022-11-16T07:21:33.745Z,71.70
2022-11-16T07:24:04.312Z,75.67
2022-11-16T07:26:33.735Z,71.27
2022-11-16T07:29:02.980Z,72.77
2022-11-16T07:31:31.135Z,75.37
2022-11-16T07:33:59.424Z,77.27
2022-11-16T07:36:27.527Z,79.07
2022-11-16T07:38:55.574Z,85.03
2022-11-16T07:41:25.074Z,85.10
2022-11-16T07:43:54.180Z,84.43
2022-11-16T07:49:14.914Z,85.07
2022-11-16T07:51:43.300Z,84.30
2022-11-16T07:54:13.098Z,88.70
2022-11-16T07:56:42.828Z,87.90
2022-11-16T07:59:11.125Z,90.00
2022-11-16T08:01:39.384Z,89.30
2022-11-16T08:04:07.581Z,92.97
2022-11-16T08:06:35.729Z,90.00
2022-11-16T08:09:04.119Z,96.57
2022-11-16T08:11:32.546Z,98.17
2022-11-16T08:14:02.055Z,97.67
2022-11-16T08:16:33.323Z,99.43
2022-11-16T08:19:02.348Z,98.17
2022-11-16T08:21:30.507Z,95.40
2022-11-16T08:23:59.112Z,91.57
2022-11-16T08:26:28.328Z,92.90
2022-11-16T08:28:57.271Z,94.43
2022-11-16T08:31:28.750Z,94.73
2022-11-16T08:33:57.529Z,96.13
2022-11-16T08:36:25.766Z,94.50
2022-11-16T08:38:54.206Z,94.30
2022-11-16T08:41:22.694Z,91.37
2022-11-16T08:43:53.355Z,96.77
2022-11-16T08:46:22.008Z,92.00
2022-11-16T08:48:55.609Z,88.70
2022-11-16T08:51:24.025Z,92.73
2022-11-16T08:53:57.031Z,90.03
2022-11-16T08:56:27.191Z,93.80
2022-11-16T08:58:59.007Z,89.53
2022-11-16T09:01:30.225Z,90.90
2022-11-16T09:04:00.200Z,92.90
2022-11-16T09:06:29.267Z,86.10
2022-11-16T09:08:58.061Z,84.07
2022-11-16T09:11:27.243Z,82.47
2022-11-16T09:13:56.453Z,82.03
2022-11-16T09:16:26.618Z,80.60
2022-11-16T09:18:55.600Z,79.90
2022-11-16T09:21:27.158Z,76.90
2022-11-16T09:23:57.094Z,67.17
2022-11-16T09:26:26.384Z,71.30
2022-11-16T09:28:58.018Z,60.83
2022-11-16T09:31:27.503Z,58.53
2022-11-16T09:33:58.385Z,56.20
2022-11-16T09:36:28.786Z,54.60
2022-11-16T09:42:06.696Z,53.03
2022-11-16T09:44:47.114Z,52.20
2022-11-16T09:47:18.678Z,51.70
2022-11-16T09:49:52.484Z,49.10
2022-11-16T09:52:29.514Z,51.30
2022-11-16T09:54:59.835Z,49.00
2022-11-16T09:57:32.367Z,45.60
2022-11-16T10:00:05.542Z,43.03
2022-11-16T10:02:39.786Z,40.40
2022-11-16T10:05:15.542Z,40.80
2022-11-16T10:07:48.337Z,38.67
2022-11-16T10:10:17.942Z,37.73
2022-11-16T10:12:52.802Z,38.20
2022-11-16T10:15:38.898Z,35.77
2022-11-16T10:18:25.155Z,36.47
2022-11-16T10:21:07.427Z,33.13
2022-11-16T10:23:50.085Z,37.57
2022-11-16T10:26:26.733Z,34.67
2022-11-16T10:29:06.137Z,30.50
2022-11-16T10:31:51.887Z,31.43
2022-11-16T10:34:23.859Z,30.37
2022-11-16T10:36:52.233Z,28.63
2022-11-16T10:39:22.014Z,25.10
2022-11-16T10:41:51.444Z,24.73
2022-11-16T10:44:26.446Z,23.60
2022-11-16T10:47:00.376Z,21.67
2022-11-16T10:49:35.330Z,20.43
2022-11-16T10:52:03.872Z,19.90
2022-11-16T10:54:33.507Z,20.00
2022-11-16T10:57:05.643Z,19.70
2022-11-16T10:59:44.661Z,19.13
2022-11-16T11:02:34.811Z,18.97
2022-11-16T11:05:09.000Z,20.23
2022-11-16T11:07:39.897Z,18.27
2022-11-16T11:10:30.734Z,18.37
2022-11-16T11:13:08.806Z,18.27
2022-11-16T11:15:37.742Z,18.23
2022-11-16T11:18:14.145Z,18.37
2022-11-16T11:20:45.393Z,18.67
2022-11-16T11:23:16.901Z,18.53
2022-11-16T11:25:54.165Z,19.07
2022-11-16T11:28:26.212Z,18.07
2022-11-16T11:31:00.224Z,17.97
2022-11-16T11:33:32.245Z,17.87
2022-11-16T11:36:05.432Z,17.70
2022-11-16T11:38:34.913Z,17.57
2022-11-16T11:41:06.078Z,17.67
2022-11-16T11:43:35.016Z,18.20
2022-11-16T11:46:13.231Z,18.30
2022-11-16T11:48:48.132Z,18.20
2022-11-16T11:51:23.614Z,17.57
2022-11-16T11:53:56.180Z,17.50
2022-11-16T11:56:27.211Z,17.80
2022-11-16T11:58:55.902Z,17.43
2022-11-16T12:01:56.196Z,16.93
2022-11-16T12:05:04.114Z,17.10
2022-11-16T12:07:48.585Z,17.80
2022-11-16T12:10:22.886Z,17.30
2022-11-16T12:13:04.937Z,17.40
2022-11-16T12:16:03.744Z,17.57
2022-11-16T12:18:46.202Z,17.17
2022-11-16T12:21:15.732Z,16.90
2022-11-16T12:24:10.356Z,17.30
2022-11-16T12:26:50.594Z,17.00
2022-11-16T12:29:26.754Z,17.27
2022-11-16T12:32:18.582Z,17.37
2022-11-16T12:35:01.420Z,18.63
2022-11-16T12:37:39.364Z,17.13
2022-11-16T12:40:31.576Z,16.73
2022-11-16T12:43:07.226Z,16.90
2022-11-16T12:46:02.428Z,17.10
2022-11-16T12:48:45.611Z,16.80
2022-11-16T12:51:30.377Z,17.63
2022-11-16T12:54:21.981Z,17.20
2022-11-16T12:56:58.403Z,17.40
2022-11-16T12:59:40.472Z,16.73
2022-11-16T13:02:22.255Z,17.03
2022-11-16T13:04:57.569Z,17.40
2022-11-16T13:07:30.115Z,17.50
2022-11-16T13:10:07.180Z,17.20
2022-11-16T13:12:36.663Z,17.33
2022-11-16T13:15:05.796Z,16.80
2022-11-16T13:17:39.864Z,16.90
2022-11-16T13:20:23.114Z,16.63
2022-11-16T13:22:59.427Z,18.50
2022-11-16T13:25:32.987Z,16.60
2022-11-16T13:28:08.744Z,16.63
2022-11-16T13:30:45.558Z,16.30
2022-11-16T13:33:30.946Z,16.50
2022-11-16T13:35:59.008Z,16.60
2022-11-16T13:38:52.721Z,16.70
2022-11-16T13:41:32.432Z,16.33
2022-11-16T13:44:01.111Z,17.20
2022-11-16T13:46:55.252Z,17.33
2022-11-16T13:49:30.897Z,17.60
2022-11-16T13:52:17.304Z,16.83
2022-11-16T13:54:51.318Z,17.47
2022-11-16T13:57:26.637Z,17.00
2022-11-16T14:00:10.442Z,17.33
2022-11-16T14:02:40.290Z,17.00
2022-11-16T14:05:17.960Z,17.30
2022-11-16T14:07:49.613Z,17.20
2022-11-16T14:10:51.020Z,17.60
2022-11-16T14:13:38.341Z,17.10
2022-11-16T14:16:55.219Z,17.40
2022-11-16T14:19:57.554Z,17.87
2022-11-16T14:22:55.983Z,18.00
2022-11-16T14:25:32.428Z,18.07
2022-11-16T14:28:17.663Z,17.87
2022-11-16T14:30:56.073Z,17.70
2022-11-16T14:33:35.077Z,18.47
2022-11-16T14:36:05.841Z,17.53
2022-11-16T14:38:37.852Z,17.83
2022-11-16T14:41:07.868Z,18.13
2022-11-16T14:43:42.499Z,18.10
2022-11-16T14:46:18.266Z,17.97
2022-11-16T14:48:47.979Z,18.53
2022-11-16T14:51:21.244Z,18.67
2022-11-16T14:53:53.798Z,19.10
2022-11-16T14:56:22.700Z,19.37
2022-11-16T14:58:55.208Z,18.57
2022-11-16T15:01:25.911Z,24.75
2022-11-16T15:03:57.910Z,19.15
2022-11-16T15:06:27.727Z,18.20
2022-11-16T15:09:01.115Z,19.20
2022-11-16T15:11:46.388Z,19.00
2022-11-16T15:14:21.041Z,18.57
2022-11-16T15:16:53.472Z,19.23
2022-11-16T15:19:22.511Z,19.33
2022-11-16T15:21:54.880Z,19.13
2022-11-16T15:24:32.766Z,20.10
2022-11-16T15:27:12.555Z,20.07
2022-11-16T15:29:40.684Z,20.03
2022-11-16T15:32:15.676Z,19.60
2022-11-16T15:34:43.979Z,20.53
2022-11-16T15:37:15.125Z,20.13
2022-11-16T15:39:44.893Z,20.30
2022-11-16T15:42:15.672Z,20.87
2022-11-16T15:44:44.439Z,21.17
2022-11-16T15:47:14.031Z,22.97
2022-11-16T15:49:44.141Z,22.20
2022-11-16T15:52:12.334Z,22.57
2022-11-16T15:54:54.269Z,22.50
2022-11-16T15:57:25.461Z,22.23
2022-11-16T15:59:55.758Z,22.80
2022-11-16T16:02:27.568Z,23.90
2022-11-16T16:04:55.705Z,24.10
2022-11-16T16:07:40.329Z,25.70
2022-11-16T16:10:23.555Z,25.67
2022-11-16T16:12:54.703Z,24.60
2022-11-16T16:15:24.920Z,24.90
2022-11-16T16:17:54.860Z,25.30
2022-11-16T16:20:25.366Z,25.07
2022-11-16T16:22:55.847Z,25.20
2022-11-16T16:25:29.455Z,25.53
2022-11-16T16:27:59.159Z,26.70
2022-11-16T16:30:28.834Z,25.60
2022-11-16T16:32:57.360Z,25.20
2022-11-16T16:35:26.645Z,24.73
2022-11-16T16:37:59.203Z,26.17
2022-11-16T16:40:27.573Z,25.40
2022-11-16T16:42:58.836Z,27.27
2022-11-16T16:45:37.168Z,25.93
2022-11-16T16:48:05.640Z,25.70
2022-11-16T16:50:33.705Z,24.73
2022-11-16T16:53:01.793Z,25.20
2022-11-16T16:55:32.951Z,27.20
2022-11-16T16:58:06.855Z,26.23
2022-11-16T17:00:34.941Z,26.10
2022-11-16T17:03:02.991Z,26.33
2022-11-16T17:05:32.759Z,27.20
2022-11-16T17:08:00.793Z,27.27
2022-11-16T17:10:28.791Z,27.67
2022-11-16T17:12:57.249Z,27.13
2022-11-16T17:15:26.835Z,28.67
2022-11-16T17:17:54.902Z,27.83
2022-11-16T17:20:23.046Z,27.37
2022-11-16T17:22:51.091Z,28.40
2022-11-16T17:25:20.767Z,27.87
2022-11-16T17:27:49.185Z,27.70
2022-11-16T17:30:17.552Z,26.77
2022-11-16T17:32:46.990Z,26.20
2022-11-16T17:35:15.131Z,27.70
2022-11-16T17:37:43.405Z,28.33
2022-11-16T17:40:11.997Z,28.23
2022-11-16T17:42:40.135Z,27.10
2022-11-16T17:45:08.827Z,27.37
2022-11-16T17:47:36.827Z,28.50
2022-11-16T17:50:08.765Z,27.87
2022-11-16T17:52:36.854Z,28.30
2022-11-16T17:55:05.298Z,27.63
2022-11-16T17:57:33.359Z,28.70
2022-11-16T18:00:01.494Z,28.03
2022-11-16T18:02:29.571Z,26.77
2022-11-16T18:04:57.624Z,26.53
2022-11-16T18:07:27.394Z,26.30
2022-11-16T18:09:55.589Z,26.07
2022-11-16T18:12:23.565Z,25.53
2022-11-16T18:15:21.324Z,25.93
2022-11-16T18:17:39.944Z,25.40
2022-11-16T18:20:09.193Z,25.07
2022-11-16T18:22:38.667Z,25.47
2022-11-16T18:25:07.503Z,25.13
2022-11-16T18:27:35.736Z,25.43
2022-11-16T18:30:04.158Z,24.70
2022-11-16T18:32:33.495Z,24.83
2022-11-16T18:35:01.787Z,24.73
2022-11-16T18:37:29.856Z,24.50
2022-11-16T18:39:59.268Z,25.50
2022-11-16T18:42:27.450Z,23.90
2022-11-16T18:44:55.795Z,25.47
2022-11-16T18:47:23.975Z,25.07
2022-11-16T18:49:52.127Z,24.50
2022-11-16T18:52:20.369Z,24.33
2022-11-16T18:54:48.559Z,24.17
2022-11-16T18:57:18.084Z,26.83
2022-11-16T18:59:46.308Z,24.00
2022-11-16T19:02:14.432Z,23.47
2022-11-16T19:04:42.803Z,26.30
2022-11-16T19:07:11.270Z,24.23
2022-11-16T19:09:39.567Z,25.30
2022-11-16T19:12:08.173Z,25.40
2022-11-16T19:14:39.460Z,25.90
2022-11-16T19:17:07.539Z,25.07
2022-11-16T19:19:35.730Z,25.43
2022-11-16T19:22:03.874Z,26.43
2022-11-16T19:24:31.951Z,27.07
2022-11-16T19:27:00.138Z,28.30
2022-11-16T19:29:28.249Z,26.70
2022-11-16T19:31:57.712Z,26.40
2022-11-16T19:34:32.003Z,27.00
2022-11-16T19:37:01.382Z,27.20
2022-11-16T19:39:29.962Z,27.27
2022-11-16T19:41:58.130Z,27.67
2022-11-16T19:44:26.229Z,28.37
2022-11-16T19:46:54.551Z,28.13
2022-11-16T19:49:24.322Z,27.97
2022-11-16T19:51:52.721Z,28.43
2022-11-16T19:54:20.770Z,27.63
2022-11-16T19:56:54.720Z,28.50
2022-11-16T19:59:23.839Z,28.33
2022-11-16T20:01:51.981Z,28.63
2022-11-16T20:04:20.000Z,28.90
2022-11-16T20:06:49.540Z,28.60
2022-11-16T20:09:17.844Z,27.43
2022-11-16T20:11:45.921Z,26.87
2022-11-16T20:14:15.266Z,28.37
2022-11-16T20:16:46.733Z,29.17
2022-11-16T20:19:17.308Z,31.27
2022-11-16T20:21:45.807Z,29.17
2022-11-16T20:24:16.512Z,29.50
2022-11-16T20:26:46.461Z,29.17
2022-11-16T20:29:15.878Z,30.13
2022-11-16T20:31:45.447Z,29.73
2022-11-16T20:34:14.949Z,29.27
2022-11-16T20:36:45.297Z,28.87
2022-11-16T20:39:16.311Z,28.10
2022-11-16T20:41:45.382Z,29.40
2022-11-16T20:44:17.088Z,29.07
2022-11-16T20:46:46.129Z,29.57
2022-11-16T20:49:14.529Z,29.37
2022-11-16T20:51:42.593Z,28.13
2022-11-16T20:54:10.620Z,29.27
2022-11-16T20:56:40.150Z,29.67
2022-11-16T20:59:08.292Z,30.73
2022-11-16T21:01:36.747Z,30.70
2022-11-16T21:04:06.637Z,28.60
2022-11-16T21:06:35.009Z,29.10
2022-11-16T21:09:04.803Z,28.43
2022-11-16T21:11:54.777Z,29.47
2022-11-16T21:14:24.021Z,27.50
2022-11-16T21:16:52.227Z,28.10
2022-11-16T21:19:20.467Z,28.00
2022-11-16T21:21:48.563Z,29.20
2022-11-16T21:24:17.653Z,27.53
2022-11-16T21:26:45.820Z,27.27
2022-11-16T21:29:13.850Z,27.27
2022-11-16T21:31:43.320Z,26.53
2022-11-16T21:34:11.495Z,25.93
2022-11-16T21:36:39.666Z,27.10
2022-11-16T21:39:08.130Z,28.57
2022-11-16T21:41:36.192Z,26.63
2022-11-16T21:44:04.263Z,26.90
2022-11-16T21:46:32.327Z,26.30
2022-11-16T21:49:01.895Z,26.47
2022-11-16T21:51:30.822Z,26.90
2022-11-16T21:53:59.023Z,26.33
2022-11-16T21:56:27.504Z,26.27
2022-11-16T21:58:55.907Z,25.83
2022-11-16T22:01:25.179Z,26.07
2022-11-16T22:04:07.229Z,25.97
2022-11-16T22:06:54.325Z,26.77
2022-11-16T22:09:22.896Z,25.87
2022-11-16T22:11:51.108Z,25.93
2022-11-16T22:14:19.183Z,26.40
2022-11-16T22:16:47.565Z,25.90
2022-11-16T22:19:15.616Z,26.13
2022-11-16T22:21:45.037Z,27.80
2022-11-16T22:24:13.312Z,26.60
2022-11-16T22:26:41.698Z,28.00
2022-11-16T22:29:09.753Z,28.07
2022-11-16T22:31:38.007Z,28.30
2022-11-16T22:34:06.154Z,28.13
2022-11-16T22:36:34.276Z,31.10
2022-11-16T22:39:03.715Z,31.67
2022-11-16T22:41:31.771Z,33.43
2022-11-16T22:43:59.876Z,32.87
2022-11-16T22:46:28.028Z,33.53
2022-11-16T22:48:56.206Z,34.10
2022-11-16T22:51:25.860Z,33.63
2022-11-16T22:53:55.006Z,36.57
2022-11-16T22:56:25.296Z,37.90
2022-11-16T22:58:53.785Z,38.40
2022-11-16T23:01:22.041Z,39.60
2022-11-16T23:03:50.497Z,40.63
2022-11-16T23:06:18.937Z,39.33
2022-11-16T23:08:47.144Z,40.70
2022-11-16T23:11:34.296Z,41.00
2022-11-16T23:14:22.286Z,40.10
2022-11-16T23:16:50.507Z,41.13
2022-11-16T23:19:38.528Z,42.83
2022-11-16T23:22:25.016Z,43.67
2022-11-16T23:25:10.542Z,43.03
2022-11-16T23:27:42.567Z,43.80
2022-11-16T23:30:13.761Z,45.43
2022-11-16T23:32:42.327Z,44.67
2022-11-16T23:35:11.120Z,40.70
2022-11-16T23:37:51.644Z,41.97
2022-11-16T23:40:20.061Z,43.40
2022-11-16T23:43:05.606Z,43.00
2022-11-16T23:45:35.035Z,45.00
2022-11-16T23:48:03.264Z,45.93
2022-11-16T23:50:31.374Z,45.40
2022-11-16T23:52:59.524Z,45.10
2022-11-16T23:55:28.017Z,43.07
2022-11-16T23:57:56.079Z,42.50
